createdAt,value
2022-11-26T00:01:44.304Z,101551.09
2022-11-26T00:06:44.913Z,101548.47
2022-11-26T00:11:43.994Z,101558.06
2022-11-26T00:16:46.012Z,101551.88
2022-11-26T00:21:44.906Z,101554.53
2022-11-26T00:26:43.706Z,101553.06
2022-11-26T00:31:42.531Z,101548.66
2022-11-26T00:36:45.440Z,101553.34
2022-11-26T00:41:47.416Z,101561.22
2022-11-26T00:46:46.368Z,101559.38
2022-11-26T00:51:47.702Z,101575.00
2022-11-26T00:56:47.092Z,101565.22
2022-11-26T01:01:45.976Z,101573.03
2022-11-26T01:06:47.278Z,101577.53
2022-11-26T01:11:50.872Z,101582.81
2022-11-26T01:16:53.806Z,101576.75
2022-11-26T01:21:54.093Z,101570.59
2022-11-26T01:26:53.014Z,101585.44
2022-11-26T01:31:51.885Z,101572.56
2022-11-26T01:36:50.716Z,101569.97
2022-11-26T01:42:00.176Z,101572.59
2022-11-26T01:47:00.197Z,101580.41
2022-11-26T01:52:06.397Z,101596.00
2022-11-26T01:57:11.919Z,101600.31
2022-11-26T02:02:11.516Z,101597.72
2022-11-26T02:07:10.349Z,101599.59
2022-11-26T02:12:10.729Z,101606.66
2022-11-26T02:17:16.718Z,101609.16
2022-11-26T02:22:30.653Z,101609.06
2022-11-26T02:28:02.087Z,101615.16
2022-11-26T02:33:06.829Z,101622.19
2022-11-26T02:38:10.931Z,101618.56
2022-11-26T02:43:09.908Z,101624.66
2022-11-26T02:48:15.813Z,101610.88
2022-11-26T02:53:16.949Z,101608.16
2022-11-26T02:58:16.017Z,101614.97
2022-11-26T03:03:24.005Z,101615.75
2022-11-26T03:08:23.708Z,101615.75
2022-11-26T03:13:22.559Z,101624.44
2022-11-26T03:18:22.763Z,101624.28
2022-11-26T03:23:21.568Z,101622.53
2022-11-26T03:28:20.359Z,101638.16
2022-11-26T03:33:19.260Z,101649.59
2022-11-26T03:38:19.503Z,101663.41
2022-11-26T03:43:18.256Z,101675.69
2022-11-26T03:48:17.077Z,101682.78
2022-11-26T03:53:15.791Z,101696.94
2022-11-26T03:58:15.889Z,101695.59
2022-11-26T04:03:14.718Z,101705.06
2022-11-26T04:08:13.751Z,101695.66
2022-11-26T04:13:15.114Z,101703.41
2022-11-26T04:18:15.289Z,101705.88
2022-11-26T04:23:14.100Z,101718.00
2022-11-26T04:28:13.482Z,101725.97
2022-11-26T04:33:12.564Z,101731.09
2022-11-26T04:38:12.810Z,101743.19
2022-11-26T04:43:11.676Z,101742.28
2022-11-26T04:48:10.549Z,101745.28
2022-11-26T04:53:09.285Z,101753.06
2022-11-26T04:58:09.456Z,101753.88
2022-11-26T05:03:08.447Z,101755.06
2022-11-26T05:08:07.915Z,101770.91
2022-11-26T05:13:06.719Z,101788.75
2022-11-26T05:18:07.060Z,101788.81
2022-11-26T05:23:05.950Z,101793.00
2022-11-26T05:28:05.041Z,101797.34
2022-11-26T05:33:03.892Z,101802.94
2022-11-26T05:38:04.181Z,101818.25
2022-11-26T05:43:02.971Z,101816.41
2022-11-26T05:48:01.776Z,101825.00
2022-11-26T05:53:00.800Z,101830.38
2022-11-26T05:58:00.984Z,101838.47
2022-11-26T06:02:59.820Z,101838.66
2022-11-26T06:08:04.233Z,101855.06
2022-11-26T06:13:06.845Z,101854.34
2022-11-26T06:18:05.773Z,101865.59
2022-11-26T06:23:05.417Z,101868.88
2022-11-26T06:28:05.798Z,101880.16
2022-11-26T06:33:06.254Z,101893.84
2022-11-26T06:38:06.686Z,101888.84
2022-11-26T06:43:08.587Z,101903.47
2022-11-26T06:48:07.645Z,101901.75
2022-11-26T06:53:08.463Z,101909.47
2022-11-26T06:58:12.053Z,101916.38
2022-11-26T07:03:14.311Z,101926.78
2022-11-26T07:08:14.131Z,101938.06
2022-11-26T07:13:14.360Z,101932.06
2022-11-26T07:18:15.758Z,101932.91
2022-11-26T07:23:16.393Z,101941.63
2022-11-26T07:28:16.766Z,101932.91
2022-11-26T07:33:15.741Z,101941.50
2022-11-26T07:38:14.514Z,101948.34
2022-11-26T07:43:13.371Z,101944.75
2022-11-26T07:48:16.914Z,101942.28
2022-11-26T07:53:16.061Z,101949.38
2022-11-26T07:58:18.719Z,101951.03
2022-11-26T08:03:19.204Z,101944.94
2022-11-26T08:08:18.084Z,101950.06
2022-11-26T08:13:16.967Z,101950.09
2022-11-26T08:18:16.002Z,101945.28
2022-11-26T08:23:16.360Z,101954.88
2022-11-26T08:28:15.359Z,101962.03
2022-11-26T08:33:14.597Z,101979.34
2022-11-26T08:38:13.456Z,101977.41
2022-11-26T08:43:13.790Z,101984.19
2022-11-26T08:48:13.602Z,101981.50
2022-11-26T08:53:12.488Z,101988.31
2022-11-26T08:58:13.482Z,101986.50
2022-11-26T09:03:13.772Z,101991.53
2022-11-26T09:08:12.706Z,102000.19
2022-11-26T09:13:11.518Z,101982.78
2022-11-26T09:18:10.292Z,102004.38
2022-11-26T09:23:10.925Z,101981.75
2022-11-26T09:28:09.998Z,101992.09
2022-11-26T09:33:09.169Z,101980.53
2022-11-26T09:38:08.104Z,101982.91
2022-11-26T09:43:23.428Z,101984.03
2022-11-26T09:48:27.510Z,101980.53
2022-11-26T09:53:31.536Z,101989.06
2022-11-26T09:58:40.645Z,101992.00
2022-11-26T10:03:42.456Z,102005.34
2022-11-26T10:09:16.120Z,101998.13
2022-11-26T10:14:32.939Z,101994.44
2022-11-26T10:19:46.455Z,102003.16
2022-11-26T10:24:45.708Z,101990.94
2022-11-26T10:29:51.037Z,101974.94
2022-11-26T10:34:52.338Z,101975.34
2022-11-26T10:40:02.035Z,101958.44
2022-11-26T10:45:22.897Z,101951.34
2022-11-26T10:55:45.274Z,101964.72
2022-11-26T11:00:55.248Z,101964.38
2022-11-26T11:06:12.722Z,101959.84
2022-11-26T11:11:21.463Z,101964.97
2022-11-26T11:16:27.682Z,101973.97
2022-11-26T11:21:31.346Z,101977.97
2022-11-26T11:26:41.334Z,101958.34
2022-11-26T11:31:47.946Z,101957.97
2022-11-26T11:37:00.146Z,101966.81
2022-11-26T11:42:00.391Z,101965.03
2022-11-26T11:47:20.697Z,101959.94
2022-11-26T11:52:35.563Z,101959.31
2022-11-26T11:57:50.407Z,101951.16
2022-11-26T12:03:28.214Z,101952.88
2022-11-26T12:08:40.978Z,101946.31
2022-11-26T12:13:50.139Z,101936.09
2022-11-26T12:18:55.282Z,101937.81
2022-11-26T12:23:59.821Z,101933.56
2022-11-26T12:29:03.345Z,101939.84
2022-11-26T12:34:09.420Z,101937.88
2022-11-26T12:39:19.176Z,101942.88
2022-11-26T12:44:25.123Z,101952.84
2022-11-26T12:49:31.823Z,101946.06
2022-11-26T12:54:34.884Z,101948.03
2022-11-26T12:59:39.809Z,101950.59
2022-11-26T13:04:40.003Z,101946.91
2022-11-26T13:09:55.436Z,101952.31
2022-11-26T13:14:58.050Z,101962.22
2022-11-26T13:20:08.714Z,101955.41
2022-11-26T13:25:40.608Z,101964.16
2022-11-26T13:30:50.991Z,101962.53
2022-11-26T13:36:21.346Z,101965.19
2022-11-26T13:41:31.296Z,101963.22
2022-11-26T13:46:32.376Z,101977.25
2022-11-26T13:51:39.660Z,101973.94
2022-11-26T13:56:41.355Z,101976.22
2022-11-26T14:01:41.393Z,101980.34
2022-11-26T14:07:16.213Z,101998.03
2022-11-26T14:12:18.763Z,101997.22
2022-11-26T14:17:32.503Z,101994.22
2022-11-26T14:22:36.334Z,102007.91
2022-11-26T14:27:40.721Z,102012.78
2022-11-26T14:32:42.248Z,102007.53
2022-11-26T14:37:52.427Z,102016.59
2022-11-26T14:43:08.215Z,102019.00
2022-11-26T14:48:16.586Z,102027.03
2022-11-26T14:53:15.838Z,102027.19
2022-11-26T14:58:20.501Z,102030.88
2022-11-26T15:03:26.021Z,102030.09
2022-11-26T15:08:27.173Z,102037.06
2022-11-26T15:13:32.918Z,102044.16
2022-11-26T15:18:34.330Z,102039.13
2022-11-26T15:23:37.585Z,102042.06
2022-11-26T15:28:41.201Z,102050.16
2022-11-26T15:33:40.331Z,102056.22
2022-11-26T15:39:01.273Z,102054.88
2022-11-26T15:44:01.975Z,102057.63
2022-11-26T15:49:03.877Z,102057.63
2022-11-26T15:54:03.532Z,102055.25
2022-11-26T15:59:15.117Z,102061.53
2022-11-26T16:04:46.331Z,102068.94
2022-11-26T16:09:46.423Z,102068.25
2022-11-26T16:14:46.605Z,102070.69
2022-11-26T16:19:50.319Z,102078.03
2022-11-26T16:25:02.693Z,102077.19
2022-11-26T16:30:16.390Z,102090.41
2022-11-26T16:35:44.133Z,102085.16
2022-11-26T16:40:37.000Z,102091.31
2022-11-26T16:45:37.553Z,102096.53
2022-11-26T16:50:36.279Z,102095.63
2022-11-26T16:55:35.088Z,102099.81
2022-11-26T17:00:34.827Z,102108.72
2022-11-26T17:05:37.171Z,102104.41
2022-11-26T17:10:35.977Z,102112.06
2022-11-26T17:15:34.965Z,102115.34
2022-11-26T17:20:35.224Z,102123.03
2022-11-26T17:25:34.286Z,102117.69
2022-11-26T17:30:35.251Z,102127.41
2022-11-26T17:35:35.858Z,102124.13
2022-11-26T17:40:34.655Z,102120.59
2022-11-26T17:45:33.473Z,102128.47
2022-11-26T17:50:34.006Z,102131.22
2022-11-26T17:55:35.638Z,102134.66
2022-11-26T18:00:34.448Z,102130.22
2022-11-26T18:05:35.785Z,102131.19
2022-11-26T18:10:41.146Z,102132.94
2022-11-26T18:15:40.007Z,102126.75
2022-11-26T18:20:38.873Z,102132.75
2022-11-26T18:25:39.163Z,102136.19
2022-11-26T18:30:38.432Z,102135.34
2022-11-26T18:35:48.308Z,102132.03
2022-11-26T18:40:59.332Z,102137.22
2022-11-26T18:46:00.451Z,102133.88
2022-11-26T18:51:00.154Z,102151.25
2022-11-26T18:56:00.394Z,102146.03
2022-11-26T19:00:59.399Z,102158.13
2022-11-26T19:06:05.453Z,102169.41
2022-11-26T19:11:10.618Z,102178.25
2022-11-26T19:16:15.819Z,102175.75
2022-11-26T19:21:19.840Z,102188.09
2022-11-26T19:26:20.467Z,102196.84
2022-11-26T19:31:21.454Z,102203.84
2022-11-26T19:36:20.827Z,102204.72
2022-11-26T19:41:25.395Z,102203.19
2022-11-26T19:46:26.605Z,102210.97
2022-11-26T19:51:27.890Z,102210.97
2022-11-26T19:56:30.570Z,102219.72
2022-11-26T20:01:32.002Z,102221.47
2022-11-26T20:06:35.383Z,102217.94
2022-11-26T20:17:28.694Z,102229.22
2022-11-26T20:22:33.965Z,102219.72
2022-11-26T20:27:34.433Z,102220.63
2022-11-26T20:32:33.213Z,102223.16
2022-11-26T20:37:34.803Z,102225.78
2022-11-26T20:42:35.405Z,102228.44
2022-11-26T20:47:34.507Z,102231.94
2022-11-26T20:52:33.750Z,102223.16
2022-11-26T20:57:33.730Z,102221.34
2022-11-26T21:02:34.405Z,102219.53
2022-11-26T21:07:33.356Z,102221.28
2022-11-26T21:12:32.223Z,102221.28
2022-11-26T21:17:31.129Z,102222.97
2022-11-26T21:22:31.585Z,102220.44
2022-11-26T21:27:32.117Z,102220.47
2022-11-26T21:32:31.068Z,102219.53
2022-11-26T21:37:31.225Z,102221.22
2022-11-26T21:42:31.063Z,102227.31
2022-11-26T21:47:31.566Z,102228.13
2022-11-26T21:52:31.838Z,102235.97
2022-11-26T21:57:32.221Z,102235.09
2022-11-26T22:02:42.447Z,102237.72
2022-11-26T22:07:45.646Z,102241.44
2022-11-26T22:12:49.432Z,102237.13
2022-11-26T22:17:48.299Z,102232.78
2022-11-26T22:22:48.554Z,102225.81
2022-11-26T22:27:47.444Z,102231.00
2022-11-26T22:32:46.392Z,102224.03
2022-11-26T22:37:45.154Z,102226.66
2022-11-26T22:42:45.333Z,102228.41
2022-11-26T22:47:48.528Z,102218.81
2022-11-26T22:52:52.322Z,102218.03
2022-11-26T22:57:53.477Z,102212.81
2022-11-26T23:02:52.576Z,102211.09
2022-11-26T23:07:51.503Z,102214.56
2022-11-26T23:12:50.379Z,102205.91
2022-11-26T23:17:51.133Z,102211.97
2022-11-26T23:22:50.110Z,102207.69
2022-11-26T23:27:49.235Z,102207.72
2022-11-26T23:32:48.233Z,102205.09
2022-11-26T23:37:48.612Z,102205.13
2022-11-26T23:42:47.517Z,102200.75
2022-11-26T23:47:46.359Z,102202.50
2022-11-26T23:52:45.147Z,102212.88
2022-11-26T23:57:45.537Z,102203.28
